Time;durP1;ratioP1;P1;durP2;ratioP2;P2;SDS_P1;SDS_P2;PMS_P1;PMS_P2;Temp;Humidity;BMP_temperature;BMP_pressure;BME280_temperature;BME280_humidity;BME280_pressure;Samples;Min_cycle;Max_cycle;Signal;HPM_P1;HPM_P2
2023/01/06 00:00:36;;;;;;;7.27;6.77;;;10.80;99.90;;;;;;5067537;28;20484;-68
2023/01/06 00:03:03;;;;;;;9.40;6.77;;;10.80;99.90;;;;;;5062794;28;20459;-68
2023/01/06 00:05:30;;;;;;;12.43;6.90;;;10.80;99.90;;;;;;5064392;28;20576;-69
2023/01/06 00:07:57;;;;;;;7.07;6.67;;;10.80;99.90;;;;;;5067167;28;20471;-70
2023/01/06 00:10:25;;;;;;;7.00;6.60;;;10.80;99.90;;;;;;5069087;28;20515;-69
2023/01/06 00:12:52;;;;;;;11.47;7.57;;;10.90;99.90;;;;;;5063583;28;20467;-70
2023/01/06 00:15:19;;;;;;;7.07;6.47;;;10.80;99.90;;;;;;5066148;28;20457;-69
2023/01/06 00:17:47;;;;;;;6.70;6.13;;;10.90;99.90;;;;;;5064285;28;20466;-68
2023/01/06 00:20:14;;;;;;;9.80;6.17;;;10.90;99.90;;;;;;5067046;28;20475;-69
2023/01/06 00:22:42;;;;;;;6.50;5.93;;;10.80;99.90;;;;;;5065891;28;20499;-71
2023/01/06 00:25:10;;;;;;;7.27;6.60;;;10.80;99.90;;;;;;5062254;28;20463;-68
2023/01/06 00:27:37;;;;;;;6.57;6.13;;;10.80;99.90;;;;;;5061555;28;20463;-68
2023/01/06 00:30:05;;;;;;;7.70;7.00;;;10.80;99.90;;;;;;5065016;28;20461;-68
2023/01/06 00:32:32;;;;;;;6.73;6.33;;;10.80;99.90;;;;;;5061656;28;20505;-69
2023/01/06 00:35:00;;;;;;;7.40;6.90;;;10.90;99.90;;;;;;5063069;28;20975;-67
2023/01/06 00:37:28;;;;;;;8.37;7.80;;;10.90;99.90;;;;;;5066293;28;20462;-68
2023/01/06 00:39:55;;;;;;;8.60;7.90;;;10.90;99.90;;;;;;5063410;28;20482;-70
2023/01/06 00:42:23;;;;;;;7.93;7.33;;;10.90;99.90;;;;;;5064027;28;20487;-72
2023/01/06 00:44:52;;;;;;;8.33;7.93;;;11.00;99.90;;;;;;5065812;28;20821;-69
2023/01/06 00:47:19;;;;;;;8.70;8.10;;;11.00;99.90;;;;;;5067373;28;20476;-68
2023/01/06 00:49:47;;;;;;;9.13;8.43;;;11.00;99.90;;;;;;5061981;28;20477;-69
2023/01/06 00:52:15;;;;;;;9.80;8.07;;;11.00;99.90;;;;;;5072772;28;20459;-70
2023/01/06 00:54:43;;;;;;;8.00;7.40;;;11.00;99.90;;;;;;5062673;28;20463;-70
2023/01/06 00:57:10;;;;;;;8.13;7.50;;;11.00;99.90;;;;;;5062478;28;20549;-67
2023/01/06 00:59:37;;;;;;;8.83;8.27;;;11.00;99.90;;;;;;5060366;28;20459;-69
2023/01/06 01:02:05;;;;;;;8.17;7.67;;;11.00;99.90;;;;;;5060074;28;20528;-70
2023/01/06 01:04:32;;;;;;;8.37;7.80;;;11.00;99.90;;;;;;5061647;28;20466;-69
2023/01/06 01:07:00;;;;;;;8.27;7.57;;;10.90;99.90;;;;;;5068052;28;20474;-69
2023/01/06 01:09:30;;;;;;;9.37;8.50;;;10.90;99.90;;;;;;5058593;28;20470;-68
2023/01/06 01:12:12;;;;;;;8.73;7.40;;;11.00;99.90;;;;;;5058189;28;20469;-73
2023/01/06 01:14:41;;;;;;;7.90;7.33;;;11.00;99.90;;;;;;5059127;28;20462;-71
2023/01/06 01:17:09;;;;;;;9.10;8.27;;;11.00;99.90;;;;;;5061946;28;20467;-71
2023/01/06 01:19:37;;;;;;;7.60;7.10;;;11.00;99.90;;;;;;5063908;28;20467;-73
2023/01/06 01:22:05;;;;;;;12.33;7.47;;;11.00;99.90;;;;;;5065175;28;20479;-71
2023/01/06 01:24:34;;;;;;;8.73;8.20;;;11.00;99.90;;;;;;5066167;28;20976;-69
2023/01/06 01:27:01;;;;;;;9.33;8.40;;;11.00;99.90;;;;;;5065114;28;20810;-71
2023/01/06 01:29:28;;;;;;;8.77;7.97;;;10.90;99.90;;;;;;5059729;28;20459;-68
2023/01/06 01:31:56;;;;;;;9.43;8.20;;;11.00;99.90;;;;;;5058818;28;20549;-69
2023/01/06 01:34:23;;;;;;;8.97;8.13;;;11.00;99.90;;;;;;5059062;28;20455;-70
2023/01/06 01:36:51;;;;;;;9.77;8.93;;;11.00;99.90;;;;;;5059289;28;20463;-71
2023/01/06 01:39:20;;;;;;;9.77;8.80;;;10.90;99.90;;;;;;5056749;28;20495;-68
2023/01/06 01:41:49;;;;;;;8.90;8.43;;;11.00;99.90;;;;;;5060057;28;20493;-68
2023/01/06 01:44:53;;;;;;;9.80;9.07;;;11.00;99.90;;;;;;5065942;28;20939;-71
2023/01/06 01:47:28;;;;;;;9.30;8.53;;;11.00;99.90;;;;;;5070397;28;20458;-71
2023/01/06 01:49:58;;;;;;;8.43;7.90;;;10.90;99.90;;;;;;5056166;28;20515;-71
2023/01/06 01:52:26;;;;;;;8.97;8.30;;;11.00;99.90;;;;;;5062880;28;20458;-71
2023/01/06 01:54:54;;;;;;;8.40;8.00;;;11.00;99.90;;;;;;5069753;28;20458;-73
2023/01/06 01:57:25;;;;;;;9.57;8.70;;;11.00;99.90;;;;;;5070138;28;20778;-68
2023/01/06 01:59:53;;;;;;;8.90;8.23;;;11.10;99.90;;;;;;5063435;28;20877;-72
2023/01/06 02:02:21;;;;;;;15.17;8.70;;;11.10;99.90;;;;;;5063885;28;20498;-69
2023/01/06 02:04:53;;;;;;;9.00;8.40;;;11.00;99.90;;;;;;5070657;28;20466;-68
2023/01/06 02:07:21;;;;;;;9.53;8.83;;;11.10;99.90;;;;;;5064258;28;20463;-71
2023/01/06 02:09:57;;;;;;;9.37;8.77;;;11.10;99.90;;;;;;5067302;28;20994;-71
2023/01/06 02:12:25;;;;;;;9.87;9.30;;;11.00;99.90;;;;;;5064629;28;20465;-71
2023/01/06 02:14:52;;;;;;;9.23;8.73;;;11.10;99.90;;;;;;5062315;28;20455;-71
2023/01/06 02:17:39;;;;;;;9.53;8.83;;;11.10;99.90;;;;;;5068694;28;20474;-71
2023/01/06 02:20:29;;;;;;;9.00;8.50;;;11.10;99.90;;;;;;5059024;28;20577;-71
2023/01/06 02:23:26;;;;;;;10.03;8.90;;;11.10;99.90;;;;;;5064240;28;20486;-69
2023/01/06 02:26:21;;;;;;;10.13;9.53;;;11.10;99.90;;;;;;5063243;28;20965;-68
2023/01/06 02:29:08;;;;;;;10.43;10.03;;;11.10;99.90;;;;;;5074627;28;20937;-70
2023/01/06 02:31:58;;;;;;;10.97;9.97;;;11.10;99.90;;;;;;5069114;28;21189;-71
2023/01/06 02:34:40;;;;;;;10.70;10.10;;;11.20;99.90;;;;;;5062157;28;20456;-71
2023/01/06 02:37:18;;;;;;;11.53;10.50;;;11.10;99.90;;;;;;5066035;28;20976;-73
2023/01/06 02:39:57;;;;;;;11.10;10.50;;;11.10;99.90;;;;;;5065718;28;20871;-71
2023/01/06 02:42:32;;;;;;;10.80;10.10;;;11.20;99.90;;;;;;5069617;28;20708;-68
2023/01/06 02:45:08;;;;;;;10.83;10.13;;;11.20;99.90;;;;;;5057382;28;20671;-67
2023/01/06 02:47:49;;;;;;;11.40;10.60;;;11.20;99.90;;;;;;5064641;28;20548;-69
2023/01/06 02:50:21;;;;;;;10.87;10.27;;;11.20;99.90;;;;;;5080233;28;20455;-68
2023/01/06 02:52:58;;;;;;;10.57;9.83;;;11.30;99.90;;;;;;5063212;28;20468;-72
2023/01/06 02:55:29;;;;;;;11.27;10.47;;;11.20;99.90;;;;;;5065083;28;20543;-70
2023/01/06 02:58:03;;;;;;;11.20;10.20;;;11.20;99.90;;;;;;5065677;28;20476;-69
2023/01/06 03:00:35;;;;;;;11.33;9.13;;;11.30;99.90;;;;;;5063777;28;20657;-68
2023/01/06 03:03:07;;;;;;;9.67;9.10;;;11.20;99.90;;;;;;5064559;28;20598;-68
2023/01/06 03:05:35;;;;;;;10.00;9.37;;;11.20;99.90;;;;;;5074142;28;20454;-72
2023/01/06 03:08:06;;;;;;;10.07;9.37;;;11.20;99.90;;;;;;5062934;28;20462;-68
2023/01/06 03:10:34;;;;;;;10.30;9.67;;;11.20;99.90;;;;;;5063752;28;20462;-69
2023/01/06 03:13:05;;;;;;;8.83;8.43;;;11.20;99.90;;;;;;5068871;28;20459;-68
2023/01/06 03:15:32;;;;;;;10.00;9.30;;;11.20;99.90;;;;;;5060533;28;20494;-70
2023/01/06 03:17:59;;;;;;;9.37;8.47;;;11.20;99.90;;;;;;5069888;28;20887;-68
2023/01/06 03:20:28;;;;;;;10.60;8.67;;;11.20;99.90;;;;;;5069584;28;20459;-69
2023/01/06 03:22:55;;;;;;;9.70;8.83;;;11.20;99.90;;;;;;5065025;28;20486;-68
2023/01/06 03:25:22;;;;;;;9.50;8.97;;;11.10;99.90;;;;;;5054981;28;20475;-71
2023/01/06 03:27:49;;;;;;;9.40;8.80;;;11.10;99.90;;;;;;5063470;28;20462;-68
2023/01/06 03:30:16;;;;;;;8.57;7.97;;;11.10;99.90;;;;;;5071117;28;20492;-68
2023/01/06 03:32:53;;;;;;;9.60;8.70;;;11.10;99.90;;;;;;5072824;28;20462;-71
2023/01/06 03:35:37;;;;;;;9.33;8.63;;;11.10;99.90;;;;;;5067102;28;20462;-69
2023/01/06 03:38:15;;;;;;;8.37;7.97;;;11.10;99.90;;;;;;5062388;28;20470;-72
2023/01/06 03:40:47;;;;;;;9.57;8.83;;;11.10;99.90;;;;;;5062117;28;20490;-70
2023/01/06 03:43:25;;;;;;;9.77;9.27;;;11.10;99.90;;;;;;5066407;28;20923;-70
2023/01/06 03:45:57;;;;;;;9.63;8.73;;;11.10;99.90;;;;;;5064610;28;20984;-69
2023/01/06 03:48:39;;;;;;;9.30;8.40;;;11.10;99.90;;;;;;5070882;28;20461;-71
2023/01/06 03:51:14;;;;;;;8.77;8.10;;;11.10;99.90;;;;;;5072690;28;20454;-68
2023/01/06 03:53:46;;;;;;;9.10;8.30;;;11.10;99.90;;;;;;5061022;28;20476;-71
2023/01/06 03:56:19;;;;;;;9.60;9.00;;;11.10;99.90;;;;;;5065180;28;20854;-73
2023/01/06 03:58:50;;;;;;;9.47;8.70;;;11.10;99.90;;;;;;5061157;28;20517;-71
2023/01/06 04:01:17;;;;;;;9.73;8.93;;;11.10;99.90;;;;;;5063785;28;20972;-71
2023/01/06 04:03:46;;;;;;;9.97;9.37;;;11.10;99.90;;;;;;5064816;28;20974;-74
2023/01/06 04:06:14;;;;;;;9.33;8.63;;;11.00;99.90;;;;;;5067073;28;20463;-72
2023/01/06 04:08:41;;;;;;;9.00;8.60;;;11.10;99.90;;;;;;5059242;28;20471;-71
2023/01/06 04:12:37;;;;;;;10.50;9.80;;;11.10;99.90;;;;;;5059878;28;20464;-71
2023/01/06 04:13:54;;;;;;;10.23;9.53;;;11.10;99.90;;;;;;5063131;28;20463;-72
2023/01/06 04:16:21;;;;;;;9.87;9.47;;;11.10;99.90;;;;;;5064093;28;20889;-71
2023/01/06 04:18:48;;;;;;;10.33;9.30;;;11.00;99.90;;;;;;5063673;28;20205;-72
2023/01/06 04:21:16;;;;;;;9.87;9.27;;;11.00;99.90;;;;;;5059427;28;21083;-72
2023/01/06 04:23:43;;;;;;;12.03;11.10;;;11.00;99.90;;;;;;5073023;28;20489;-72
2023/01/06 04:26:10;;;;;;;9.70;9.20;;;11.00;99.90;;;;;;5074720;28;20556;-69
2023/01/06 04:28:36;;;;;;;9.77;9.27;;;11.00;99.90;;;;;;5071039;28;20512;-69
2023/01/06 04:31:04;;;;;;;9.90;9.27;;;11.00;99.90;;;;;;5066623;28;20470;-71
2023/01/06 04:33:31;;;;;;;9.57;9.17;;;11.00;99.90;;;;;;5067606;28;22387;-71
2023/01/06 04:35:57;;;;;;;9.43;8.93;;;11.00;99.90;;;;;;5059342;28;20861;-70
2023/01/06 04:38:25;;;;;;;9.27;8.60;;;10.90;99.90;;;;;;5070882;28;20769;-69
2023/01/06 04:40:52;;;;;;;10.53;9.53;;;10.90;99.90;;;;;;5062614;28;20493;-69
2023/01/06 04:43:19;;;;;;;10.00;9.30;;;10.80;99.90;;;;;;5063871;28;20494;-70
2023/01/06 04:45:46;;;;;;;9.17;8.77;;;10.80;99.90;;;;;;5055114;28;20528;-69
2023/01/06 04:48:13;;;;;;;9.23;8.60;;;10.90;99.90;;;;;;5066061;28;20470;-70
2023/01/06 04:50:40;;;;;;;8.80;8.30;;;10.80;99.90;;;;;;5069717;28;20455;-71
2023/01/06 04:53:09;;;;;;;9.30;8.80;;;10.80;99.90;;;;;;5074404;28;20866;-72
2023/01/06 04:55:41;;;;;;;9.40;8.80;;;10.80;99.90;;;;;;5067552;28;20463;-71
2023/01/06 04:58:08;;;;;;;10.00;9.50;;;10.80;99.90;;;;;;5059158;28;20466;-70
2023/01/06 05:00:35;;;;;;;10.30;9.50;;;10.90;99.90;;;;;;5066839;28;20454;-71
2023/01/06 05:03:02;;;;;;;9.60;9.20;;;10.80;99.90;;;;;;5064286;28;20497;-73
2023/01/06 05:05:29;;;;;;;10.23;9.43;;;10.90;99.90;;;;;;5064948;28;20489;-69
2023/01/06 05:07:57;;;;;;;9.47;8.83;;;10.90;99.90;;;;;;5064928;28;20572;-69
2023/01/06 05:10:24;;;;;;;9.87;9.13;;;10.90;99.90;;;;;;5067430;28;20467;-69
2023/01/06 05:12:52;;;;;;;9.63;8.87;;;10.90;99.90;;;;;;5063191;28;20466;-69
2023/01/06 05:15:19;;;;;;;10.50;9.80;;;10.90;99.90;;;;;;5055143;28;20519;-69
2023/01/06 05:17:46;;;;;;;10.73;9.33;;;11.00;99.90;;;;;;5059495;28;20456;-68
2023/01/06 05:20:13;;;;;;;9.13;8.73;;;11.00;99.90;;;;;;5064722;28;20801;-69
2023/01/06 05:22:39;;;;;;;9.57;9.00;;;10.90;99.90;;;;;;5062271;28;20486;-69
2023/01/06 05:25:08;;;;;;;9.17;8.77;;;10.90;99.90;;;;;;5074809;28;20455;-69
2023/01/06 05:27:34;;;;;;;9.30;8.80;;;10.90;99.90;;;;;;5072263;28;20495;-69
2023/01/06 05:30:03;;;;;;;9.47;8.67;;;10.80;99.90;;;;;;5073144;28;20486;-69
2023/01/06 05:32:30;;;;;;;9.40;8.90;;;10.90;99.90;;;;;;5067806;28;20502;-69
2023/01/06 05:34:57;;;;;;;10.83;10.00;;;10.90;99.90;;;;;;5070397;28;20507;-69
2023/01/06 05:37:25;;;;;;;9.80;9.10;;;10.90;99.90;;;;;;5066946;28;20462;-69
2023/01/06 05:39:51;;;;;;;9.40;8.80;;;10.90;99.90;;;;;;5068017;28;21276;-72
2023/01/06 05:42:18;;;;;;;10.00;9.23;;;10.90;99.90;;;;;;5061520;28;20459;-69
2023/01/06 05:44:45;;;;;;;9.57;8.37;;;10.90;99.90;;;;;;5070053;28;20870;-68
2023/01/06 05:47:13;;;;;;;12.63;9.23;;;10.80;99.90;;;;;;5066199;28;20876;-70
2023/01/06 05:49:41;;;;;;;9.00;8.50;;;10.80;99.90;;;;;;5065641;28;20484;-71
2023/01/06 05:52:08;;;;;;;9.00;8.50;;;10.70;99.90;;;;;;5069003;28;20466;-69
2023/01/06 05:54:35;;;;;;;9.37;8.53;;;10.80;99.90;;;;;;5074526;28;20476;-70
2023/01/06 05:57:01;;;;;;;9.63;9.13;;;10.80;99.90;;;;;;5067029;28;20546;-72
2023/01/06 05:59:28;;;;;;;8.90;8.50;;;10.80;99.90;;;;;;5068275;28;20462;-70
2023/01/06 06:01:55;;;;;;;9.10;8.70;;;10.80;99.90;;;;;;5062133;28;21161;-71
2023/01/06 06:04:23;;;;;;;11.27;10.50;;;10.80;99.90;;;;;;5071688;28;21011;-70
2023/01/06 06:06:50;;;;;;;8.53;8.07;;;10.80;99.90;;;;;;5071193;28;20459;-69
2023/01/06 06:09:16;;;;;;;8.63;7.93;;;10.80;99.90;;;;;;5066138;28;20493;-69
2023/01/06 06:11:43;;;;;;;9.43;8.73;;;10.80;99.90;;;;;;5066746;28;20470;-69
2023/01/06 06:14:11;;;;;;;8.87;8.23;;;10.80;99.90;;;;;;5064238;28;20472;-69
2023/01/06 06:16:38;;;;;;;8.80;8.30;;;10.80;99.90;;;;;;5068648;28;20503;-69
2023/01/06 06:19:05;;;;;;;9.17;8.40;;;10.80;99.90;;;;;;5069999;28;20454;-69
2023/01/06 06:21:34;;;;;;;9.83;9.23;;;10.90;99.90;;;;;;5068015;28;20474;-69
2023/01/06 06:24:01;;;;;;;9.03;8.63;;;10.90;99.90;;;;;;5065355;28;20486;-69
2023/01/06 06:26:28;;;;;;;9.37;8.77;;;10.90;99.90;;;;;;5065230;28;20525;-70
2023/01/06 06:28:55;;;;;;;9.43;8.83;;;10.90;99.90;;;;;;5069828;28;20530;-70
2023/01/06 06:31:24;;;;;;;10.20;9.40;;;10.80;99.90;;;;;;5057286;28;20517;-72
2023/01/06 06:33:52;;;;;;;9.00;8.50;;;10.80;99.90;;;;;;5075798;28;20466;-71
2023/01/06 06:36:19;;;;;;;9.67;9.17;;;10.80;99.90;;;;;;5067852;28;20533;-69
2023/01/06 06:38:50;;;;;;;9.60;8.90;;;10.80;99.90;;;;;;5071580;28;20545;-69
2023/01/06 06:41:17;;;;;;;9.60;9.20;;;10.80;99.90;;;;;;5064760;28;20834;-69
2023/01/06 06:43:44;;;;;;;9.20;8.50;;;10.90;99.90;;;;;;5065260;28;20539;-69
2023/01/06 06:46:11;;;;;;;9.87;9.33;;;10.90;99.90;;;;;;5071003;28;20508;-69
2023/01/06 06:48:38;;;;;;;9.30;8.90;;;10.90;99.90;;;;;;5068828;28;20912;-71
2023/01/06 06:51:07;;;;;;;9.67;9.07;;;10.90;99.90;;;;;;5073523;28;20463;-69
2023/01/06 06:53:34;;;;;;;10.13;9.27;;;10.80;99.90;;;;;;5070820;28;21011;-69
2023/01/06 06:56:03;;;;;;;9.53;8.83;;;10.80;99.90;;;;;;5071995;28;20470;-69
2023/01/06 06:58:31;;;;;;;9.30;8.80;;;10.90;99.90;;;;;;5065321;28;20459;-71
2023/01/06 07:00:58;;;;;;;9.17;8.67;;;10.80;99.90;;;;;;5067647;28;20894;-69
2023/01/06 07:03:25;;;;;;;9.30;8.90;;;10.80;99.90;;;;;;5066958;28;20964;-71
2023/01/06 07:05:53;;;;;;;9.20;8.50;;;10.80;99.90;;;;;;5067822;28;20555;-69
2023/01/06 07:08:20;;;;;;;9.20;8.43;;;10.70;99.90;;;;;;5063072;28;21098;-69
2023/01/06 07:10:47;;;;;;;8.23;7.93;;;10.70;99.90;;;;;;5066156;28;20467;-69
2023/01/06 07:13:16;;;;;;;8.70;8.20;;;10.70;99.90;;;;;;5068085;28;20494;-69
2023/01/06 07:15:44;;;;;;;8.83;8.23;;;10.70;99.90;;;;;;5069270;28;20454;-69
2023/01/06 07:18:11;;;;;;;9.10;8.67;;;10.70;99.90;;;;;;5070970;28;20528;-69
2023/01/06 07:20:38;;;;;;;8.77;8.37;;;10.70;99.90;;;;;;5074584;28;20599;-69
2023/01/06 07:23:06;;;;;;;9.30;8.90;;;10.70;99.90;;;;;;5064727;28;20474;-72
2023/01/06 07:25:33;;;;;;;9.27;8.67;;;10.60;99.90;;;;;;5067708;28;20469;-70
2023/01/06 07:28:04;;;;;;;8.70;8.30;;;10.60;99.90;;;;;;5064838;28;20960;-69
2023/01/06 07:30:33;;;;;;;9.10;8.53;;;10.60;99.90;;;;;;5055394;28;21340;-69
2023/01/06 07:33:00;;;;;;;8.80;8.30;;;10.60;99.90;;;;;;5065081;28;20473;-69
2023/01/06 07:35:27;;;;;;;8.47;8.07;;;10.70;99.90;;;;;;5065414;28;20981;-72
2023/01/06 07:37:54;;;;;;;8.47;8.17;;;10.70;99.90;;;;;;5064348;28;20976;-70
2023/01/06 07:40:21;;;;;;;9.10;8.40;;;10.80;99.90;;;;;;5066712;28;20520;-69
2023/01/06 07:42:49;;;;;;;8.10;7.80;;;10.80;99.90;;;;;;5065612;28;20857;-72
2023/01/06 07:45:16;;;;;;;8.67;8.27;;;10.80;99.90;;;;;;5069703;28;20458;-70
2023/01/06 07:47:45;;;;;;;9.00;8.60;;;10.90;99.90;;;;;;5073561;28;20494;-69
2023/01/06 07:50:12;;;;;;;8.40;8.10;;;10.90;99.90;;;;;;5069856;28;20466;-69
2023/01/06 07:52:40;;;;;;;8.70;8.30;;;11.00;99.90;;;;;;5065835;28;20675;-70
2023/01/06 07:55:07;;;;;;;8.60;8.10;;;10.90;99.90;;;;;;5068164;28;20462;-71
2023/01/06 07:57:35;;;;;;;8.83;8.43;;;10.90;99.90;;;;;;5072365;28;20459;-70
2023/01/06 08:00:03;;;;;;;8.00;7.70;;;11.00;99.90;;;;;;5055485;28;21008;-72
2023/01/06 08:02:30;;;;;;;8.40;8.03;;;11.00;99.90;;;;;;5062982;28;20462;-69
2023/01/06 08:04:58;;;;;;;9.10;8.60;;;11.00;99.90;;;;;;5059037;28;20839;-69
2023/01/06 08:07:26;;;;;;;9.83;8.40;;;10.90;99.90;;;;;;5068116;28;20463;-70
2023/01/06 08:09:53;;;;;;;8.17;7.87;;;11.00;99.90;;;;;;5057661;28;20470;-72
2023/01/06 08:12:19;;;;;;;8.17;7.87;;;11.10;99.90;;;;;;5062214;28;20471;-70
2023/01/06 08:14:46;;;;;;;9.00;8.30;;;11.00;99.90;;;;;;5058819;28;20463;-70
2023/01/06 08:17:14;;;;;;;9.00;8.40;;;11.10;99.90;;;;;;5062253;28;20988;-70
2023/01/06 08:19:40;;;;;;;8.07;7.67;;;11.00;99.90;;;;;;5057345;28;20460;-70
2023/01/06 08:22:09;;;;;;;8.43;8.13;;;11.00;99.90;;;;;;5063337;28;21042;-70
2023/01/06 08:24:35;;;;;;;7.40;7.10;;;11.10;99.90;;;;;;5065133;28;20491;-70
2023/01/06 08:27:02;;;;;;;7.87;7.47;;;11.10;99.90;;;;;;5062947;28;20466;-70
2023/01/06 08:29:30;;;;;;;8.50;7.97;;;11.10;99.90;;;;;;5061474;28;20454;-70
2023/01/06 08:31:57;;;;;;;8.07;7.40;;;11.10;99.90;;;;;;5063202;28;20481;-70
2023/01/06 08:34:24;;;;;;;8.87;8.10;;;11.10;99.90;;;;;;5067135;28;20467;-69
2023/01/06 08:36:52;;;;;;;8.13;7.83;;;11.00;99.90;;;;;;5053563;28;20463;-73
2023/01/06 08:39:20;;;;;;;7.87;7.57;;;11.10;99.90;;;;;;5066970;28;21012;-70
2023/01/06 08:41:50;;;;;;;8.60;8.20;;;11.10;99.90;;;;;;5072862;28;20473;-71
2023/01/06 08:44:17;;;;;;;8.50;8.10;;;11.20;99.90;;;;;;5060511;28;20525;-70
2023/01/06 08:46:44;;;;;;;7.57;7.27;;;11.20;99.90;;;;;;5069081;28;20757;-70
2023/01/06 08:49:11;;;;;;;7.77;7.47;;;11.10;99.90;;;;;;5071259;28;20466;-70
2023/01/06 08:51:38;;;;;;;7.70;7.40;;;11.20;99.90;;;;;;5068175;28;21018;-70
2023/01/06 08:54:05;;;;;;;7.30;7.00;;;11.20;99.90;;;;;;5063370;28;20508;-70
2023/01/06 08:56:34;;;;;;;7.10;6.73;;;11.00;99.90;;;;;;5065348;28;20570;-71
2023/01/06 08:59:03;;;;;;;7.20;6.63;;;11.00;99.90;;;;;;5066865;28;20881;-69
2023/01/06 09:01:32;;;;;;;6.37;5.90;;;10.80;99.90;;;;;;5070784;28;20472;-71
2023/01/06 09:04:00;;;;;;;6.50;6.00;;;10.80;99.90;;;;;;5070095;28;20810;-70
2023/01/06 09:06:28;;;;;;;6.33;5.83;;;10.80;99.90;;;;;;5058578;28;20487;-70
2023/01/06 09:08:56;;;;;;;6.30;6.10;;;10.80;99.90;;;;;;5064824;28;20469;-69
2023/01/06 09:11:23;;;;;;;5.00;4.80;;;10.80;99.90;;;;;;5069236;28;20462;-69
2023/01/06 09:13:52;;;;;;;5.43;4.90;;;10.80;99.90;;;;;;5070713;28;20960;-71
2023/01/06 09:16:20;;;;;;;5.90;5.70;;;10.80;99.90;;;;;;5069116;28;20508;-68
2023/01/06 09:18:48;;;;;;;8.20;7.80;;;10.70;99.90;;;;;;5067573;28;20831;-69
2023/01/06 09:21:17;;;;;;;7.27;6.97;;;10.60;99.90;;;;;;5066504;28;20469;-69
2023/01/06 09:23:45;;;;;;;7.50;7.20;;;10.60;99.90;;;;;;5061500;28;20518;-71
2023/01/06 09:26:12;;;;;;;8.23;7.87;;;10.70;99.90;;;;;;5058523;28;20753;-69
2023/01/06 09:28:39;;;;;;;8.33;7.97;;;10.60;99.90;;;;;;5072207;28;20481;-70
2023/01/06 09:31:08;;;;;;;16.40;15.50;;;10.60;99.90;;;;;;5068452;28;20554;-68
2023/01/06 09:33:35;;;;;;;14.33;13.70;;;10.60;99.90;;;;;;5073616;28;20497;-70
2023/01/06 09:36:02;;;;;;;14.67;13.97;;;10.50;99.90;;;;;;5058505;28;20942;-70
2023/01/06 09:38:29;;;;;;;15.90;15.10;;;10.50;99.90;;;;;;5069952;28;20466;-70
2023/01/06 09:41:12;;;;;;;14.70;14.00;;;10.40;99.90;;;;;;5069218;28;20521;-72
2023/01/06 09:43:48;;;;;;;13.83;13.23;;;10.40;99.90;;;;;;5062843;28;20872;-69
2023/01/06 09:46:19;;;;;;;13.87;13.20;;;10.40;99.90;;;;;;5066005;28;20461;-72
2023/01/06 09:48:58;;;;;;;14.30;13.70;;;10.40;99.90;;;;;;5066682;28;20459;-70
2023/01/06 09:51:27;;;;;;;13.63;13.00;;;10.40;99.90;;;;;;5066885;28;20466;-69
2023/01/06 09:53:58;;;;;;;12.97;12.37;;;10.40;99.90;;;;;;5058206;28;21062;-69
2023/01/06 09:56:25;;;;;;;12.70;12.20;;;10.40;99.90;;;;;;5062070;28;20455;-72
2023/01/06 09:59:02;;;;;;;12.23;11.73;;;10.30;99.90;;;;;;5069679;28;20447;-73
2023/01/06 10:01:34;;;;;;;14.10;13.40;;;10.40;99.90;;;;;;5066778;28;20462;-70
2023/01/06 10:04:00;;;;;;;12.50;11.90;;;10.50;99.90;;;;;;5064272;28;20548;-70
2023/01/06 10:06:33;;;;;;;12.63;11.67;;;10.40;99.90;;;;;;5056497;28;20483;-70
2023/01/06 10:09:12;;;;;;;11.70;11.03;;;10.40;99.90;;;;;;5060253;28;20908;-70
2023/01/06 10:11:52;;;;;;;11.33;10.80;;;10.50;99.90;;;;;;5055760;28;21012;-71
2023/01/06 10:14:25;;;;;;;11.73;11.20;;;10.50;99.90;;;;;;5063620;28;20450;-71
2023/01/06 10:17:06;;;;;;;12.50;11.53;;;10.50;99.90;;;;;;5067044;28;20490;-71
2023/01/06 10:19:47;;;;;;;10.80;10.20;;;10.50;99.90;;;;;;5061773;28;20922;-70
2023/01/06 10:22:20;;;;;;;10.90;10.40;;;10.50;99.90;;;;;;5065252;28;20856;-72
2023/01/06 10:24:55;;;;;;;10.00;9.60;;;10.50;99.90;;;;;;5068053;28;20546;-71
2023/01/06 10:27:26;;;;;;;9.90;9.40;;;10.60;99.90;;;;;;5069273;28;21002;-72
2023/01/06 10:29:55;;;;;;;9.40;9.00;;;10.60;99.90;;;;;;5069441;28;20461;-71
2023/01/06 10:32:26;;;;;;;11.07;10.50;;;10.60;99.90;;;;;;5068543;28;20460;-73
2023/01/06 10:34:54;;;;;;;9.90;9.50;;;10.60;99.90;;;;;;5066306;28;20475;-70
2023/01/06 10:37:24;;;;;;;8.83;8.43;;;10.70;99.90;;;;;;5065199;28;20474;-72
2023/01/06 10:39:58;;;;;;;9.60;9.00;;;10.60;99.90;;;;;;5067249;28;20498;-72
2023/01/06 10:45:19;;;;;;;10.10;9.60;;;10.70;99.90;;;;;;5060472;28;20493;-71
2023/01/06 10:47:47;;;;;;;9.70;9.30;;;10.70;99.90;;;;;;5068308;28;20479;-71
2023/01/06 10:50:15;;;;;;;10.50;10.00;;;10.80;99.90;;;;;;5067444;28;20463;-71
2023/01/06 10:52:42;;;;;;;9.80;9.30;;;10.90;99.90;;;;;;5067726;28;20468;-70
2023/01/06 10:55:20;;;;;;;9.67;9.07;;;10.90;99.90;;;;;;5068653;28;20472;-70
2023/01/06 10:57:47;;;;;;;9.30;8.90;;;11.00;99.90;;;;;;5058101;28;20466;-72
2023/01/06 11:00:19;;;;;;;9.40;8.90;;;11.00;99.90;;;;;;5062615;28;20807;-70
2023/01/06 11:02:49;;;;;;;9.50;8.80;;;10.90;99.90;;;;;;5065143;28;20465;-71
2023/01/06 11:05:19;;;;;;;9.60;8.90;;;11.00;99.90;;;;;;5068215;28;20766;-71
2023/01/06 11:07:49;;;;;;;9.80;9.30;;;11.10;99.90;;;;;;5071323;28;20465;-69
2023/01/06 11:10:27;;;;;;;8.60;8.20;;;11.10;99.90;;;;;;5065929;28;20487;-71
2023/01/06 11:12:56;;;;;;;8.13;7.83;;;11.20;99.90;;;;;;5067158;28;20553;-72
2023/01/06 11:15:29;;;;;;;7.67;7.27;;;11.20;99.90;;;;;;5064404;28;20609;-71
2023/01/06 11:17:58;;;;;;;7.80;7.40;;;11.20;99.90;;;;;;5059372;28;20463;-70
2023/01/06 11:20:31;;;;;;;7.17;6.80;;;11.20;99.90;;;;;;5075112;28;21302;-72
2023/01/06 11:23:14;;;;;;;7.30;6.90;;;11.30;99.90;;;;;;5066564;28;20838;-71
2023/01/06 11:25:41;;;;;;;6.90;6.50;;;11.30;99.90;;;;;;5062455;28;20506;-72
2023/01/06 11:28:19;;;;;;;7.57;6.87;;;11.40;99.90;;;;;;5068182;28;20823;-70
2023/01/06 11:30:52;;;;;;;7.07;6.67;;;11.60;99.90;;;;;;5070668;28;20458;-73
2023/01/06 11:33:23;;;;;;;6.90;6.47;;;11.70;99.90;;;;;;5059678;28;20465;-72
2023/01/06 11:35:51;;;;;;;7.17;6.50;;;11.80;99.90;;;;;;5061942;28;20482;-70
2023/01/06 11:38:20;;;;;;;7.20;6.80;;;11.70;99.90;;;;;;5054388;28;20460;-71
2023/01/06 11:40:49;;;;;;;7.53;6.93;;;11.70;99.90;;;;;;5073762;28;20517;-70
2023/01/06 11:43:21;;;;;;;7.80;7.27;;;11.70;99.90;;;;;;5059996;28;20656;-70
2023/01/06 11:45:53;;;;;;;8.00;7.70;;;11.60;99.90;;;;;;5064149;28;21032;-70
2023/01/06 11:48:26;;;;;;;7.73;7.43;;;11.60;99.90;;;;;;5066963;28;20455;-70
2023/01/06 11:50:55;;;;;;;8.23;7.77;;;11.50;99.90;;;;;;5054213;28;21051;-69
2023/01/06 11:53:23;;;;;;;7.30;6.90;;;11.50;99.90;;;;;;5065529;28;20465;-71
2023/01/06 11:56:02;;;;;;;6.60;6.30;;;11.60;99.90;;;;;;5069235;28;20548;-69
2023/01/06 11:58:39;;;;;;;7.03;6.73;;;11.70;99.90;;;;;;5063309;28;20461;-72
2023/01/06 12:01:11;;;;;;;9.77;9.37;;;11.60;99.90;;;;;;5061517;28;20458;-69
2023/01/06 12:03:43;;;;;;;12.03;11.50;;;11.60;99.90;;;;;;5063672;28;20462;-68
2023/01/06 12:06:25;;;;;;;13.37;12.67;;;11.40;99.90;;;;;;5065143;28;20491;-69
2023/01/06 12:08:56;;;;;;;12.03;11.53;;;11.20;99.90;;;;;;5061502;28;20454;-70
2023/01/06 12:11:29;;;;;;;12.47;11.97;;;11.10;99.90;;;;;;5065008;28;20454;-70
2023/01/06 12:13:57;;;;;;;13.63;12.93;;;11.10;99.90;;;;;;5056068;28;20465;-69
2023/01/06 12:16:40;;;;;;;12.40;11.80;;;11.20;99.90;;;;;;5060516;28;20466;-70
2023/01/06 12:19:17;;;;;;;13.43;12.70;;;11.10;99.90;;;;;;5062119;28;20948;-70
2023/01/06 12:21:43;;;;;;;12.67;12.07;;;11.30;99.90;;;;;;5069573;28;20465;-70
2023/01/06 12:24:16;;;;;;;13.50;12.80;;;11.20;99.90;;;;;;5068779;28;20467;-71
2023/01/06 12:26:43;;;;;;;12.10;11.50;;;11.30;99.90;;;;;;5063029;28;20463;-71
2023/01/06 12:29:16;;;;;;;12.10;11.50;;;11.40;99.90;;;;;;5053616;28;20462;-71
2023/01/06 12:31:47;;;;;;;11.60;11.00;;;11.30;99.90;;;;;;5055816;28;21201;-72
2023/01/06 12:34:19;;;;;;;13.37;12.57;;;11.30;99.90;;;;;;5060706;28;20470;-71
2023/01/06 12:36:50;;;;;;;12.67;12.07;;;11.30;99.90;;;;;;5066363;28;20451;-70
2023/01/06 12:39:25;;;;;;;12.93;12.30;;;11.40;99.90;;;;;;5065301;28;20493;-69
2023/01/06 12:41:55;;;;;;;12.70;11.90;;;11.40;99.90;;;;;;5062237;28;20481;-69
2023/01/06 12:44:35;;;;;;;12.33;11.63;;;11.40;99.90;;;;;;5065577;28;20458;-70
2023/01/06 12:47:07;;;;;;;12.63;12.03;;;11.40;99.90;;;;;;5060696;28;20456;-70
2023/01/06 12:49:43;;;;;;;12.23;11.63;;;11.40;99.90;;;;;;5063448;28;21310;-70
2023/01/06 12:52:15;;;;;;;12.77;12.07;;;11.30;99.90;;;;;;5063005;28;20963;-71
2023/01/06 12:54:52;;;;;;;11.90;11.30;;;11.20;99.90;;;;;;5066681;28;20856;-72
2023/01/06 12:57:31;;;;;;;10.70;10.10;;;11.20;99.90;;;;;;5067889;28;20548;-72
2023/01/06 13:00:13;;;;;;;13.10;12.50;;;11.30;99.90;;;;;;5057004;28;20458;-69